Time;durP1;ratioP1;P1;durP2;ratioP2;P2;SDS_P1;SDS_P2;PMS_P1;PMS_P2;Temp;Humidity;BMP_temperature;BMP_pressure;BME280_temperature;BME280_humidity;BME280_pressure;Samples;Min_cycle;Max_cycle;Signal;HPM_P1;HPM_P2
2022/01/05 00:01:36;;;;;;;11.35;1.90;;;1.30;99.90;;;;;;4987597;28;20593;-71
2022/01/05 00:04:04;;;;;;;14.55;1.77;;;1.30;99.90;;;;;;4986948;28;20134;-71
2022/01/05 00:06:32;;;;;;;12.88;1.60;;;1.30;99.90;;;;;;4986204;28;20054;-72
2022/01/05 00:09:00;;;;;;;16.58;2.10;;;1.30;99.90;;;;;;4987131;28;20054;-72
2022/01/05 00:11:27;;;;;;;13.63;2.00;;;1.30;99.90;;;;;;4986906;28;20531;-71
2022/01/05 00:13:56;;;;;;;10.52;1.67;;;1.30;99.90;;;;;;4966380;28;20062;-72
2022/01/05 00:16:24;;;;;;;11.80;2.10;;;1.30;99.90;;;;;;4967835;28;20054;-75
2022/01/05 00:18:53;;;;;;;13.95;2.15;;;1.30;99.90;;;;;;4950690;28;20072;-74
2022/01/05 00:21:21;;;;;;;13.93;2.10;;;1.30;99.90;;;;;;4967895;28;20218;-74
2022/01/05 00:23:48;;;;;;;15.57;2.40;;;1.30;99.90;;;;;;4967838;28;20053;-72
2022/01/05 00:26:16;;;;;;;11.88;1.88;;;1.30;99.90;;;;;;4968096;28;20058;-74
2022/01/05 00:28:44;;;;;;;13.57;1.95;;;1.30;99.90;;;;;;4982842;28;20047;-73
2022/01/05 00:31:11;;;;;;;15.18;2.67;;;1.30;99.90;;;;;;4972607;28;20065;-73
2022/01/05 00:33:39;;;;;;;16.55;2.50;;;1.30;99.90;;;;;;4985277;28;20057;-76
2022/01/05 00:36:07;;;;;;;22.10;2.53;;;1.30;99.90;;;;;;4985798;28;20488;-74
2022/01/05 00:38:34;;;;;;;14.38;2.67;;;1.30;99.90;;;;;;4985439;28;20061;-73
2022/01/05 00:41:02;;;;;;;9.68;1.55;;;1.30;99.90;;;;;;4986859;28;20061;-71
2022/01/05 00:43:30;;;;;;;12.95;1.98;;;1.30;99.90;;;;;;4985953;28;20058;-75
2022/01/05 00:45:58;;;;;;;11.60;1.90;;;1.30;99.90;;;;;;4985770;28;20058;-71
2022/01/05 00:48:29;;;;;;;20.60;2.40;;;1.30;99.90;;;;;;4986787;28;20061;-73
2022/01/05 00:51:02;;;;;;;12.93;1.75;;;1.30;99.90;;;;;;4985659;28;20506;-72
2022/01/05 00:53:30;;;;;;;17.30;2.25;;;1.30;99.90;;;;;;4986724;28;20395;-72
2022/01/05 00:55:58;;;;;;;14.77;2.20;;;1.30;99.90;;;;;;4986603;28;20058;-71
2022/01/05 00:58:26;;;;;;;20.15;2.55;;;1.30;99.90;;;;;;4986865;28;20050;-72
2022/01/05 01:00:53;;;;;;;17.33;2.33;;;1.30;99.90;;;;;;4985688;28;20054;-71
2022/01/05 01:03:22;;;;;;;;;;;1.30;99.90;;;;;;4986238;28;20868;-71
2022/01/05 01:05:49;;;;;;;11.35;1.73;;;1.30;99.90;;;;;;4985356;28;20374;-71
2022/01/05 01:08:17;;;;;;;14.05;1.77;;;1.30;99.90;;;;;;4986807;28;20054;-71
2022/01/05 01:10:46;;;;;;;14.10;2.00;;;1.30;99.90;;;;;;4986525;28;20451;-71
2022/01/05 01:13:17;;;;;;;21.70;2.33;;;1.30;99.90;;;;;;4985440;28;20051;-70
2022/01/05 01:15:45;;;;;;;16.27;1.88;;;1.30;99.90;;;;;;4984375;28;20061;-71
2022/01/05 01:18:14;;;;;;;23.45;2.50;;;1.30;99.90;;;;;;4986178;28;20054;-71
2022/01/05 01:20:42;;;;;;;16.85;2.30;;;1.20;99.90;;;;;;4985485;28;20046;-73
2022/01/05 01:23:11;;;;;;;16.15;2.35;;;1.20;99.90;;;;;;4986660;28;20053;-71
2022/01/05 01:25:39;;;;;;;20.38;2.45;;;1.30;99.90;;;;;;4985114;28;20070;-74
2022/01/05 01:28:06;;;;;;;16.55;2.08;;;1.20;99.90;;;;;;4985083;28;20406;-72
2022/01/05 01:30:34;;;;;;;21.08;2.30;;;1.20;99.90;;;;;;4986594;28;20136;-73
2022/01/05 01:33:02;;;;;;;17.90;2.65;;;1.20;99.90;;;;;;4984469;28;20146;-72
2022/01/05 01:35:30;;;;;;;;;;;1.20;99.90;;;;;;4985174;28;20058;-72
2022/01/05 01:37:58;;;;;;;14.75;2.13;;;1.10;99.90;;;;;;4985460;28;19921;-72
2022/01/05 01:40:26;;;;;;;17.17;2.45;;;1.10;99.90;;;;;;4986267;28;20058;-73
2022/01/05 01:42:54;;;;;;;;;;;1.10;99.90;;;;;;4986569;28;20046;-71
2022/01/05 01:45:21;;;;;;;13.55;1.75;;;1.10;99.90;;;;;;4984971;28;19925;-74
2022/01/05 01:47:49;;;;;;;15.48;1.80;;;1.10;99.90;;;;;;4986379;28;20077;-75
2022/01/05 01:50:17;;;;;;;12.05;1.65;;;1.10;99.90;;;;;;4985150;28;20050;-71
2022/01/05 01:52:44;;;;;;;12.38;2.20;;;1.00;99.90;;;;;;4984820;28;20050;-72
2022/01/05 01:55:12;;;;;;;14.45;1.80;;;1.10;99.90;;;;;;4986188;28;20522;-71
2022/01/05 01:57:43;;;;;;;19.25;2.05;;;1.10;99.90;;;;;;4985062;28;20066;-71
2022/01/05 02:00:12;;;;;;;15.18;2.22;;;1.10;99.90;;;;;;4986186;28;20057;-72
2022/01/05 02:02:44;;;;;;;10.63;1.80;;;1.10;99.90;;;;;;4986046;28;20546;-73
2022/01/05 02:05:12;;;;;;;12.20;2.33;;;1.10;99.90;;;;;;4985991;28;20051;-71
2022/01/05 02:07:40;;;;;;;;;;;1.10;99.90;;;;;;4984598;28;20047;-71
2022/01/05 02:10:09;;;;;;;11.25;1.98;;;1.10;99.90;;;;;;4984049;28;19929;-71
2022/01/05 02:12:37;;;;;;;18.00;2.38;;;1.10;99.90;;;;;;4990654;28;20341;-75
2022/01/05 02:15:07;;;;;;;11.68;1.85;;;1.10;99.90;;;;;;4968344;28;20061;-71
2022/01/05 02:17:45;;;;;;;11.30;2.15;;;1.10;99.90;;;;;;4984402;28;20383;-71
2022/01/05 02:20:20;;;;;;;10.05;1.60;;;1.10;99.90;;;;;;4985780;28;20042;-71
2022/01/05 02:22:48;;;;;;;16.65;1.98;;;1.20;99.90;;;;;;4985836;28;20055;-71
2022/01/05 02:25:17;;;;;;;14.43;2.10;;;1.20;99.90;;;;;;4984109;28;20886;-72
2022/01/05 02:27:47;;;;;;;12.25;1.70;;;1.30;99.90;;;;;;4986779;28;20506;-72
2022/01/05 02:30:19;;;;;;;13.38;1.90;;;1.20;99.90;;;;;;4988024;28;20385;-72
2022/01/05 02:32:47;;;;;;;18.02;2.00;;;1.30;99.90;;;;;;4988976;28;20438;-73
2022/01/05 02:35:15;;;;;;;16.05;2.00;;;1.30;99.90;;;;;;4989434;28;20054;-71
2022/01/05 02:37:46;;;;;;;14.35;2.17;;;1.30;99.90;;;;;;4987981;28;20419;-75
2022/01/05 02:40:15;;;;;;;9.85;1.85;;;1.30;99.90;;;;;;4988409;28;20557;-74
2022/01/05 02:42:44;;;;;;;11.13;1.80;;;1.30;99.90;;;;;;4987898;28;20058;-74
2022/01/05 02:45:13;;;;;;;13.00;1.98;;;1.40;99.90;;;;;;4987884;28;20053;-72
2022/01/05 02:47:42;;;;;;;13.90;1.95;;;1.40;99.90;;;;;;4972186;28;20050;-71
2022/01/05 02:50:12;;;;;;;17.23;2.30;;;1.40;99.90;;;;;;4989803;28;20069;-71
2022/01/05 02:52:41;;;;;;;12.55;2.08;;;1.40;99.90;;;;;;4989669;28;20050;-72
2022/01/05 02:55:09;;;;;;;9.77;1.90;;;1.40;99.90;;;;;;4972223;28;20061;-73
2022/01/05 02:57:37;;;;;;;11.80;1.73;;;1.40;99.90;;;;;;4989300;28;20081;-71
2022/01/05 03:00:06;;;;;;;;;;;1.50;99.90;;;;;;4988445;28;20519;-72
2022/01/05 03:02:33;;;;;;;16.10;2.08;;;1.40;99.90;;;;;;4987874;28;19933;-71
2022/01/05 03:05:02;;;;;;;13.32;1.80;;;1.40;99.90;;;;;;4989680;28;20054;-72
2022/01/05 03:07:32;;;;;;;14.82;1.80;;;1.40;99.90;;;;;;4988315;28;20199;-72
2022/01/05 03:10:00;;;;;;;13.60;1.92;;;1.40;99.90;;;;;;4989519;28;20050;-73
2022/01/05 03:12:27;;;;;;;12.43;1.73;;;1.40;99.90;;;;;;4987770;28;20057;-71
2022/01/05 03:14:55;;;;;;;13.18;1.45;;;1.40;99.90;;;;;;4989253;28;20046;-71
2022/01/05 03:17:22;;;;;;;15.13;1.90;;;1.40;99.90;;;;;;4971918;28;20062;-71
2022/01/05 03:19:50;;;;;;;12.70;1.80;;;1.40;99.90;;;;;;4987953;28;20046;-71
2022/01/05 03:22:18;;;;;;;10.95;1.80;;;1.40;99.90;;;;;;4989092;28;20047;-70
2022/01/05 03:24:45;;;;;;;13.93;1.80;;;1.30;99.90;;;;;;4989341;28;20395;-71
2022/01/05 03:27:13;;;;;;;10.98;1.77;;;1.40;99.90;;;;;;4988235;28;20415;-72
2022/01/05 03:29:40;;;;;;;15.95;2.35;;;1.40;99.90;;;;;;4987994;28;20042;-70
2022/01/05 03:32:08;;;;;;;13.75;2.00;;;1.40;99.90;;;;;;4985982;28;20110;-70
2022/01/05 03:34:37;;;;;;;12.52;1.75;;;1.40;99.90;;;;;;4983563;28;20667;-71
2022/01/05 03:37:05;;;;;;;11.40;1.85;;;1.40;99.90;;;;;;4986918;28;20058;-71
2022/01/05 03:39:33;;;;;;;15.02;2.40;;;1.40;99.90;;;;;;4986867;28;20062;-71
2022/01/05 03:42:02;;;;;;;17.77;2.17;;;1.40;99.90;;;;;;4988732;28;20054;-73
2022/01/05 03:44:29;;;;;;;9.77;1.27;;;1.40;99.90;;;;;;4987339;28;20058;-72
2022/01/05 03:46:57;;;;;;;12.27;2.13;;;1.40;99.90;;;;;;4988627;28;20054;-74
2022/01/05 03:49:25;;;;;;;16.48;2.28;;;1.40;99.90;;;;;;4988595;28;20057;-74
2022/01/05 03:51:53;;;;;;;13.88;1.90;;;1.40;99.90;;;;;;4986995;28;20049;-72
2022/01/05 03:54:20;;;;;;;;;;;1.30;99.90;;;;;;4989000;28;20050;-72
2022/01/05 03:56:48;;;;;;;14.05;1.80;;;1.30;99.90;;;;;;4987899;28;19932;-72
2022/01/05 03:59:15;;;;;;;13.15;2.17;;;1.30;99.90;;;;;;4988417;28;20069;-73
2022/01/05 04:01:43;;;;;;;18.30;2.67;;;1.20;99.90;;;;;;4986904;28;20058;-73
2022/01/05 04:04:11;;;;;;;16.73;1.90;;;1.20;99.90;;;;;;4988372;28;20495;-71
2022/01/05 04:06:38;;;;;;;15.15;2.35;;;1.20;99.90;;;;;;4987024;28;20050;-74
2022/01/05 04:09:06;;;;;;;14.77;1.85;;;1.30;99.90;;;;;;4988237;28;20057;-74
2022/01/05 04:11:34;;;;;;;14.60;1.48;;;1.20;99.90;;;;;;4970931;28;20505;-72
2022/01/05 04:14:01;;;;;;;19.20;2.22;;;1.30;99.90;;;;;;4988035;28;20055;-74
2022/01/05 04:16:29;;;;;;;16.27;2.20;;;1.20;99.90;;;;;;4986519;28;20134;-71
2022/01/05 04:18:57;;;;;;;14.52;2.20;;;1.30;99.90;;;;;;4987916;28;20073;-74
2022/01/05 04:21:24;;;;;;;20.52;2.25;;;1.30;99.90;;;;;;4987309;28;20526;-71
2022/01/05 04:23:52;;;;;;;15.52;1.73;;;1.30;99.90;;;;;;4986557;28;20042;-74
2022/01/05 04:26:20;;;;;;;13.07;2.20;;;1.20;99.90;;;;;;4987710;28;20062;-74
2022/01/05 04:28:48;;;;;;;19.65;2.50;;;1.20;99.90;;;;;;4986608;28;20051;-74
2022/01/05 04:31:16;;;;;;;25.58;1.95;;;1.20;99.90;;;;;;4986722;28;20065;-72
2022/01/05 04:33:44;;;;;;;15.93;2.25;;;1.20;99.90;;;;;;4987657;28;20062;-71
2022/01/05 04:36:32;;;;;;;;;;;1.20;99.90;;;;;;4986475;28;20049;-71
2022/01/05 04:39:00;;;;;;;12.27;1.98;;;1.30;99.90;;;;;;4970383;28;19944;-71
2022/01/05 04:41:28;;;;;;;16.33;2.08;;;1.30;99.90;;;;;;4986173;28;20057;-71
2022/01/05 04:43:56;;;;;;;14.90;1.90;;;1.30;99.90;;;;;;4970201;28;20046;-71
2022/01/05 04:46:23;;;;;;;14.05;2.25;;;1.30;99.90;;;;;;4987542;28;20585;-70
2022/01/05 04:48:51;;;;;;;10.68;1.92;;;1.30;99.90;;;;;;4985727;28;20088;-71
2022/01/05 04:51:19;;;;;;;14.88;2.00;;;1.30;99.90;;;;;;4985894;28;20062;-71
2022/01/05 04:53:47;;;;;;;17.25;2.00;;;1.30;99.90;;;;;;4986535;28;20057;-71
2022/01/05 04:56:14;;;;;;;18.02;2.25;;;1.30;99.90;;;;;;4985274;28;20054;-76
2022/01/05 04:58:42;;;;;;;14.70;2.03;;;1.20;99.90;;;;;;4986083;28;20057;-75
2022/01/05 05:01:10;;;;;;;18.35;2.38;;;1.20;99.90;;;;;;4987393;28;20053;-75
2022/01/05 05:03:38;;;;;;;;;;;1.20;99.90;;;;;;4986197;28;20058;-71
2022/01/05 05:06:05;;;;;;;12.68;2.28;;;1.20;99.90;;;;;;4986900;28;19921;-71
2022/01/05 05:08:33;;;;;;;15.00;2.08;;;1.20;99.90;;;;;;4985993;28;20693;-70
2022/01/05 05:11:01;;;;;;;20.02;2.42;;;1.20;99.90;;;;;;4969688;28;20061;-72
2022/01/05 05:13:29;;;;;;;19.52;3.00;;;1.10;99.90;;;;;;4986804;28;20046;-71
2022/01/05 05:15:56;;;;;;;16.35;2.30;;;1.20;99.90;;;;;;4986895;28;20057;-71
2022/01/05 05:18:29;;;;;;;19.40;2.13;;;1.20;99.90;;;;;;4986943;28;20046;-70
2022/01/05 05:20:57;;;;;;;18.00;2.13;;;1.20;99.90;;;;;;4985123;28;20062;-70
2022/01/05 05:23:25;;;;;;;15.35;2.00;;;1.20;99.90;;;;;;4969913;28;20054;-72
2022/01/05 05:25:53;;;;;;;24.42;2.47;;;1.20;99.90;;;;;;4986800;28;20456;-70
2022/01/05 05:28:20;;;;;;;23.90;2.88;;;1.20;99.90;;;;;;4985917;28;20825;-71
2022/01/05 05:30:48;;;;;;;15.35;2.30;;;1.20;99.90;;;;;;4969711;28;20042;-71
2022/01/05 05:33:16;;;;;;;20.73;2.80;;;1.20;99.90;;;;;;4987210;28;20054;-73
2022/01/05 05:35:44;;;;;;;25.38;2.92;;;1.20;99.90;;;;;;4985745;28;20050;-72
2022/01/05 05:38:11;;;;;;;15.57;2.72;;;1.20;99.90;;;;;;4986595;28;20066;-72
2022/01/05 05:40:39;;;;;;;18.05;2.13;;;1.20;99.90;;;;;;4984684;28;20065;-71
2022/01/05 05:43:08;;;;;;;19.50;2.67;;;1.20;99.90;;;;;;4985873;28;20057;-71
2022/01/05 05:45:36;;;;;;;19.52;2.50;;;1.20;99.90;;;;;;5001981;28;20449;-71
2022/01/05 05:48:04;;;;;;;;;;;1.20;99.90;;;;;;5017620;28;20061;-71
2022/01/05 05:50:32;;;;;;;15.50;2.50;;;1.20;99.90;;;;;;4985150;28;19925;-71
2022/01/05 05:53:00;;;;;;;19.30;2.45;;;1.30;99.90;;;;;;4968776;28;20423;-71
2022/01/05 05:55:28;;;;;;;;;;;1.30;99.90;;;;;;4985509;28;20058;-70
2022/01/05 05:57:56;;;;;;;14.98;2.30;;;1.30;99.90;;;;;;5017507;28;20341;-71
2022/01/05 06:00:23;;;;;;;20.80;2.55;;;1.30;99.90;;;;;;4985044;28;20053;-71
2022/01/05 06:02:51;;;;;;;16.33;2.33;;;1.20;99.90;;;;;;4987382;28;20066;-71
2022/01/05 06:05:19;;;;;;;15.25;2.40;;;1.30;99.90;;;;;;4988394;28;20058;-71
2022/01/05 06:07:46;;;;;;;16.08;2.30;;;1.30;99.90;;;;;;4989581;28;20120;-71
2022/01/05 06:10:14;;;;;;;16.42;2.65;;;1.30;99.90;;;;;;4989797;28;20068;-72
2022/01/05 06:12:42;;;;;;;15.68;2.25;;;1.30;99.90;;;;;;4988580;28;20050;-73
2022/01/05 06:15:10;;;;;;;13.48;1.95;;;1.40;99.90;;;;;;4989689;28;20514;-72
2022/01/05 06:17:38;;;;;;;20.38;2.45;;;1.40;99.90;;;;;;4988393;28;20066;-70
2022/01/05 06:20:07;;;;;;;14.05;2.30;;;1.40;99.90;;;;;;4972124;28;20058;-71
2022/01/05 06:22:38;;;;;;;16.20;2.40;;;1.40;99.90;;;;;;4988477;28;20055;-71
2022/01/05 06:25:07;;;;;;;20.75;2.42;;;1.40;99.90;;;;;;4971900;28;20054;-72
2022/01/05 06:27:35;;;;;;;20.40;2.40;;;1.30;99.90;;;;;;4989544;28;20042;-71
2022/01/05 06:30:04;;;;;;;;;;;1.30;99.90;;;;;;4988168;28;20046;-73
2022/01/05 06:32:34;;;;;;;19.33;2.42;;;1.40;99.90;;;;;;4988008;28;19929;-72
2022/01/05 06:35:03;;;;;;;17.98;2.20;;;1.40;99.90;;;;;;4988194;28;20057;-71
2022/01/05 06:37:30;;;;;;;27.00;3.03;;;1.40;99.90;;;;;;4989519;28;20050;-74
2022/01/05 06:39:58;;;;;;;15.57;2.33;;;1.40;99.90;;;;;;4989352;28;20415;-72
2022/01/05 06:42:26;;;;;;;20.75;2.25;;;1.30;99.90;;;;;;4989495;28;20050;-74
2022/01/05 06:44:53;;;;;;;20.85;2.53;;;1.40;99.90;;;;;;4988114;28;20057;-73
2022/01/05 06:47:21;;;;;;;22.25;2.42;;;1.40;99.90;;;;;;4989182;28;20046;-71
2022/01/05 06:49:49;;;;;;;17.27;2.30;;;1.40;99.90;;;;;;4988437;28;20061;-72
2022/01/05 06:52:17;;;;;;;25.77;2.75;;;1.40;99.90;;;;;;4989144;28;20046;-71
2022/01/05 06:54:44;;;;;;;21.00;2.65;;;1.40;99.90;;;;;;4989176;28;20097;-71
2022/01/05 06:57:12;;;;;;;18.15;2.20;;;1.40;99.90;;;;;;4988239;28;20059;-74
2022/01/05 06:59:40;;;;;;;23.70;2.42;;;1.30;99.90;;;;;;4988556;28;20391;-71
2022/01/05 07:02:08;;;;;;;13.98;2.22;;;1.30;99.90;;;;;;4987703;28;20059;-71
2022/01/05 07:04:36;;;;;;;19.77;2.58;;;1.30;99.90;;;;;;4971818;28;20062;-72
2022/01/05 07:07:05;;;;;;;19.08;2.53;;;1.30;99.90;;;;;;4971892;28;20061;-71
2022/01/05 07:09:32;;;;;;;;;;;1.30;99.90;;;;;;4989339;28;20060;-73
2022/01/05 07:12:00;;;;;;;15.98;2.35;;;1.30;99.90;;;;;;5018854;28;19928;-71
2022/01/05 07:14:28;;;;;;;15.70;2.20;;;1.30;99.90;;;;;;4988020;28;20053;-71
2022/01/05 07:16:55;;;;;;;18.83;2.45;;;1.30;99.90;;;;;;4987446;28;20057;-72
2022/01/05 07:19:23;;;;;;;21.15;2.45;;;1.30;99.90;;;;;;4987369;28;20689;-71
2022/01/05 07:21:51;;;;;;;14.52;2.22;;;1.30;99.90;;;;;;4988922;28;20430;-74
2022/01/05 07:24:19;;;;;;;19.25;2.60;;;1.20;99.90;;;;;;4988404;28;20057;-76
2022/01/05 07:26:48;;;;;;;17.63;2.58;;;1.20;99.90;;;;;;4987559;28;20402;-72
2022/01/05 07:29:17;;;;;;;11.38;1.98;;;1.20;99.90;;;;;;4987258;28;20066;-73
2022/01/05 07:31:45;;;;;;;18.63;2.33;;;1.20;99.90;;;;;;4988190;28;20046;-71
2022/01/05 07:34:14;;;;;;;15.10;2.15;;;1.20;99.90;;;;;;4988078;28;20380;-71
2022/01/05 07:36:41;;;;;;;;;;;1.20;99.90;;;;;;4987701;28;20514;-73
2022/01/05 07:39:09;;;;;;;17.95;2.50;;;1.20;99.90;;;;;;4990519;28;20297;-71
2022/01/05 07:41:37;;;;;;;;;;;1.10;99.90;;;;;;4996351;28;20084;-72
2022/01/05 07:44:05;;;;;;;15.88;2.45;;;1.10;99.90;;;;;;4992533;28;19933;-72
2022/01/05 07:46:34;;;;;;;15.52;2.47;;;1.10;99.90;;;;;;4999085;28;20050;-71
2022/01/05 07:49:03;;;;;;;16.98;2.13;;;1.10;99.90;;;;;;5001869;28;20050;-70
2022/01/05 07:51:31;;;;;;;17.10;2.72;;;1.00;99.90;;;;;;4988701;28;20062;-72
2022/01/05 07:53:59;;;;;;;;;;;1.10;99.90;;;;;;4994965;28;20506;-71
2022/01/05 07:56:27;;;;;;;19.20;2.47;;;1.10;99.90;;;;;;5000369;28;19929;-73
2022/01/05 07:58:55;;;;;;;;;;;1.10;99.90;;;;;;4999739;28;20049;-73
2022/01/05 08:01:23;;;;;;;13.27;2.17;;;1.10;99.90;;;;;;5004089;28;19925;-72
2022/01/05 08:03:52;;;;;;;21.60;2.45;;;1.10;99.90;;;;;;5003698;28;20050;-71
2022/01/05 08:06:22;;;;;;;19.00;2.92;;;1.20;99.90;;;;;;5001927;28;20596;-71
2022/01/05 08:08:50;;;;;;;22.08;2.95;;;1.20;99.90;;;;;;4998962;28;20057;-71
2022/01/05 08:11:18;;;;;;;22.65;2.72;;;1.20;99.90;;;;;;5000188;28;20057;-72
2022/01/05 08:13:47;;;;;;;19.33;2.85;;;1.20;99.90;;;;;;5021193;28;20053;-72
2022/01/05 08:16:15;;;;;;;17.15;2.60;;;1.20;99.90;;;;;;5005758;28;20065;-71
2022/01/05 08:18:43;;;;;;;19.45;2.40;;;1.20;99.90;;;;;;5005048;28;20167;-73
2022/01/05 08:21:11;;;;;;;24.98;3.08;;;1.20;99.90;;;;;;4995314;28;20054;-71
2022/01/05 08:23:39;;;;;;;20.17;2.30;;;1.20;99.90;;;;;;5004558;28;20050;-73
2022/01/05 08:26:07;;;;;;;17.83;2.40;;;1.20;99.90;;;;;;5015336;28;20057;-72
2022/01/05 08:28:35;;;;;;;18.65;2.55;;;1.20;99.90;;;;;;5004867;28;20069;-73
2022/01/05 08:31:03;;;;;;;17.50;2.42;;;1.30;99.90;;;;;;5004618;28;20052;-73
2022/01/05 08:33:31;;;;;;;20.90;2.97;;;1.30;99.90;;;;;;5003892;28;20050;-75
2022/01/05 08:35:59;;;;;;;23.13;2.90;;;1.30;99.90;;;;;;4996275;28;20046;-77
2022/01/05 08:38:26;;;;;;;20.38;3.10;;;1.30;99.90;;;;;;4994490;28;20038;-74
2022/01/05 08:40:55;;;;;;;25.98;2.95;;;1.40;99.90;;;;;;4985857;28;20051;-74
2022/01/05 08:43:23;;;;;;;15.27;2.67;;;1.40;99.90;;;;;;4967358;28;20495;-75
2022/01/05 08:45:51;;;;;;;20.23;2.60;;;1.40;99.90;;;;;;4985072;28;20046;-71
2022/01/05 08:48:18;;;;;;;18.80;2.53;;;1.50;99.90;;;;;;4986474;28;20046;-75
2022/01/05 08:50:46;;;;;;;24.13;2.90;;;1.50;99.90;;;;;;4985937;28;20042;-75
2022/01/05 08:53:14;;;;;;;21.55;3.00;;;1.50;99.90;;;;;;4969303;28;20138;-72
2022/01/05 08:55:45;;;;;;;17.70;2.72;;;1.60;99.90;;;;;;5001072;28;20050;-72
2022/01/05 08:58:14;;;;;;;27.17;3.08;;;1.70;99.90;;;;;;4963086;28;20046;-77
2022/01/05 09:00:42;;;;;;;25.85;2.90;;;1.70;99.90;;;;;;4990532;28;20056;-79
2022/01/05 09:03:13;;;;;;;16.70;2.60;;;1.80;99.90;;;;;;5000102;28;20037;-78
2022/01/05 09:05:42;;;;;;;15.88;2.58;;;1.80;99.90;;;;;;5004796;28;20050;-76
2022/01/05 09:08:10;;;;;;;18.70;2.88;;;1.90;99.90;;;;;;4996247;28;20108;-77
2022/01/05 09:10:38;;;;;;;23.02;2.67;;;1.80;99.90;;;;;;4990723;28;20067;-76
2022/01/05 09:13:09;;;;;;;18.83;2.42;;;1.90;99.90;;;;;;4997289;28;20736;-73
2022/01/05 09:15:38;;;;;;;22.15;2.90;;;2.00;99.90;;;;;;4998436;28;20061;-73
2022/01/05 09:18:06;;;;;;;18.10;2.70;;;2.10;99.90;;;;;;4999394;28;20050;-73
2022/01/05 09:20:34;;;;;;;19.70;2.75;;;2.10;99.90;;;;;;5002789;28;20609;-73
2022/01/05 09:23:02;;;;;;;18.73;2.70;;;2.10;99.90;;;;;;5003155;28;20054;-76
2022/01/05 09:25:30;;;;;;;;;;;2.20;99.90;;;;;;4989993;28;20655;-75
2022/01/05 09:27:58;;;;;;;16.27;2.70;;;2.30;99.90;;;;;;4995363;28;20181;-76
2022/01/05 09:30:27;;;;;;;18.40;2.88;;;2.30;99.90;;;;;;4985684;28;20435;-77
2022/01/05 09:32:55;;;;;;;16.85;3.13;;;2.30;99.90;;;;;;5005560;28;20042;-75
2022/01/05 09:35:24;;;;;;;13.57;2.65;;;2.40;99.90;;;;;;5004307;28;20165;-76
2022/01/05 09:38:05;;;;;;;21.42;3.10;;;2.40;99.90;;;;;;5009588;28;20053;-75
2022/01/05 09:43:21;;;;;;;20.13;3.17;;;2.50;99.90;;;;;;5007123;28;20046;-74
2022/01/05 09:46:07;;;;;;;15.23;3.08;;;2.60;99.90;;;;;;5007269;28;20684;-75
2022/01/05 09:48:57;;;;;;;20.33;3.05;;;2.70;99.90;;;;;;4988929;28;20384;-75
2022/01/05 09:51:30;;;;;;;17.30;2.35;;;2.70;99.90;;;;;;4986553;28;20047;-74
2022/01/05 09:54:01;;;;;;;14.88;2.83;;;2.80;99.90;;;;;;4988477;28;20051;-74
2022/01/05 09:56:50;;;;;;;14.45;2.33;;;2.80;99.90;;;;;;4988078;28;20054;-74
2022/01/05 09:59:19;;;;;;;19.63;2.50;;;2.90;99.90;;;;;;4988715;28;20403;-76
2022/01/05 10:01:46;;;;;;;;;;;3.00;99.90;;;;;;4988791;28;20054;-76
2022/01/05 10:04:14;;;;;;;;;;;3.10;99.90;;;;;;4990130;28;19944;-75
2022/01/05 10:06:42;;;;;;;19.90;2.90;;;3.10;99.90;;;;;;4988281;28;20373;-73
2022/01/05 10:09:10;;;;;;;20.85;2.80;;;3.20;99.90;;;;;;4988773;28;20042;-74
2022/01/05 10:11:38;;;;;;;18.65;2.78;;;3.30;99.90;;;;;;4989068;28;20054;-74
2022/01/05 10:14:09;;;;;;;14.82;2.92;;;3.40;99.90;;;;;;4972010;28;20043;-74
2022/01/05 10:16:36;;;;;;;19.05;2.60;;;3.50;99.90;;;;;;4989113;28;20050;-73
2022/01/05 10:19:06;;;;;;;20.88;3.35;;;3.80;99.90;;;;;;4987496;28;20506;-75
2022/01/05 10:21:41;;;;;;;19.58;2.97;;;4.20;99.90;;;;;;4988265;28;20046;-78
2022/01/05 10:24:08;;;;;;;19.35;3.33;;;4.70;99.90;;;;;;4988046;28;20053;-74
2022/01/05 10:26:39;;;;;;;18.02;2.95;;;5.30;99.90;;;;;;4988477;28;20404;-75
2022/01/05 10:29:14;;;;;;;16.85;3.38;;;5.90;99.90;;;;;;4988538;28;20050;-81
2022/01/05 10:31:43;;;;;;;13.48;2.72;;;6.40;99.90;;;;;;4988259;28;20407;-83
2022/01/05 10:34:20;;;;;;;23.60;3.40;;;7.00;99.90;;;;;;4984899;28;20046;-78
2022/01/05 10:36:51;;;;;;;18.30;3.35;;;7.30;99.90;;;;;;4971342;28;20046;-73
2022/01/05 10:39:40;;;;;;;13.38;3.10;;;7.60;99.90;;;;;;4985595;28;20094;-74
2022/01/05 10:42:13;;;;;;;20.15;3.35;;;7.90;99.90;;;;;;4988730;28;20491;-76
2022/01/05 10:44:43;;;;;;;21.00;2.85;;;8.30;99.90;;;;;;5004173;28;20046;-76
2022/01/05 10:47:16;;;;;;;13.25;3.13;;;8.50;99.90;;;;;;4983625;28;20570;-76
2022/01/05 10:49:44;;;;;;;17.23;3.05;;;8.70;99.90;;;;;;4986952;28;20085;-79
2022/01/05 10:52:33;;;;;;;16.88;3.42;;;8.80;99.90;;;;;;4993471;28;20053;-72
2022/01/05 10:55:18;;;;;;;13.32;2.83;;;9.00;99.90;;;;;;4997051;28;20046;-73
2022/01/05 10:58:07;;;;;;;11.80;3.15;;;9.20;99.90;;;;;;4996121;28;20038;-73
2022/01/05 11:00:45;;;;;;;15.45;3.53;;;9.50;99.90;;;;;;5005081;28;20042;-73
2022/01/05 11:03:37;;;;;;;17.13;3.33;;;9.70;99.90;;;;;;5004570;28;20049;-73
2022/01/05 11:06:11;;;;;;;17.48;3.50;;;9.90;99.90;;;;;;4986354;28;20057;-72
2022/01/05 11:09:05;;;;;;;15.50;2.97;;;10.00;99.90;;;;;;4994991;28;20080;-75
2022/01/05 11:11:42;;;;;;;19.00;3.45;;;10.40;99.90;;;;;;5006057;28;20062;-73
2022/01/05 11:14:17;;;;;;;19.00;3.25;;;10.50;99.90;;;;;;5005231;28;20046;-76
2022/01/05 11:16:53;;;;;;;12.48;3.13;;;10.70;99.90;;;;;;5006596;28;20050;-73
2022/01/05 11:19:28;;;;;;;14.35;3.40;;;10.80;99.90;;;;;;5007024;28;20057;-80
2022/01/05 11:22:14;;;;;;;16.38;3.38;;;10.80;99.90;;;;;;5000532;28;20057;-77
2022/01/05 11:24:44;;;;;;;17.85;3.15;;;10.80;99.90;;;;;;5005819;28;20057;-73
2022/01/05 11:27:32;;;;;;;17.05;3.35;;;10.90;99.90;;;;;;4999711;28;20042;-75
2022/01/05 11:30:00;;;;;;;;;;;11.10;99.90;;;;;;5004461;28;20395;-73
2022/01/05 11:32:31;;;;;;;17.33;3.35;;;11.20;99.90;;;;;;5006505;28;19921;-73
2022/01/05 11:34:58;;;;;;;12.15;3.17;;;11.40;99.90;;;;;;5006355;28;20057;-74
2022/01/05 11:37:26;;;;;;;17.35;3.40;;;11.50;99.90;;;;;;5007567;28;20069;-78
2022/01/05 11:39:56;;;;;;;14.95;3.03;;;11.60;99.90;;;;;;4990473;28;20057;-77
2022/01/05 11:42:31;;;;;;;10.73;3.00;;;11.90;98.70;;;;;;5006398;28;20498;-74
2022/01/05 11:45:00;;;;;;;13.48;3.00;;;12.10;99.80;;;;;;5007182;28;20042;-75
2022/01/05 11:47:30;;;;;;;17.45;3.38;;;12.20;99.40;;;;;;5005987;28;20514;-77
2022/01/05 11:50:13;;;;;;;14.60;3.13;;;12.40;97.90;;;;;;4990359;28;20042;-77
2022/01/05 11:52:56;;;;;;;12.50;3.20;;;12.40;96.20;;;;;;5011000;28;20490;-75
2022/01/05 11:55:25;;;;;;;16.92;3.50;;;12.40;97.10;;;;;;5006224;28;20060;-79
2022/01/05 11:58:16;;;;;;;17.70;3.47;;;12.30;96.00;;;;;;4991832;28;20400;-73
2022/01/05 12:00:46;;;;;;;19.05;3.70;;;12.40;96.70;;;;;;4986078;28;20054;-71
2022/01/05 12:03:46;;;;;;;15.60;3.58;;;12.60;97.80;;;;;;4987078;28;20050;-72
2022/01/05 12:06:14;;;;;;;14.73;3.60;;;12.80;96.70;;;;;;4970356;28;20070;-75
2022/01/05 12:08:46;;;;;;;17.27;3.40;;;13.40;97.50;;;;;;4987865;28;20054;-74
2022/01/05 12:11:42;;;;;;;13.63;3.42;;;13.50;96.00;;;;;;4987518;28;20518;-73
2022/01/05 12:14:22;;;;;;;16.13;3.22;;;13.50;94.30;;;;;;4997404;28;20065;-74
2022/01/05 12:17:00;;;;;;;15.82;3.17;;;13.30;94.20;;;;;;4993228;28;20041;-73
2022/01/05 12:19:41;;;;;;;15.65;3.58;;;13.30;94.20;;;;;;4988297;28;20760;-72
2022/01/05 12:22:28;;;;;;;16.73;3.30;;;13.40;94.90;;;;;;4986536;28;20050;-73
2022/01/05 12:25:00;;;;;;;14.18;3.40;;;13.50;93.70;;;;;;4986426;28;20046;-74
2022/01/05 12:27:32;;;;;;;16.52;3.28;;;13.40;94.60;;;;;;4987108;28;20422;-73
2022/01/05 12:30:10;;;;;;;16.80;3.55;;;13.60;94.70;;;;;;4984137;28;20050;-72
2022/01/05 12:32:40;;;;;;;12.77;3.38;;;13.50;93.90;;;;;;4998916;28;20362;-73
2022/01/05 12:35:19;;;;;;;13.25;3.20;;;13.50;93.80;;;;;;5005120;28;20050;-71
2022/01/05 12:37:49;;;;;;;14.38;3.15;;;13.40;93.20;;;;;;5005686;28;20054;-71
2022/01/05 12:40:45;;;;;;;12.75;3.30;;;13.30;93.80;;;;;;5006337;28;20054;-71
2022/01/05 12:43:19;;;;;;;14.32;3.20;;;13.10;93.10;;;;;;5005488;28;20045;-73
2022/01/05 12:46:11;;;;;;;15.35;3.28;;;12.70;93.80;;;;;;5006193;28;20038;-73
2022/01/05 12:48:43;;;;;;;12.82;3.13;;;12.60;94.40;;;;;;4985820;28;20415;-73
2022/01/05 12:51:23;;;;;;;19.02;3.65;;;12.30;94.40;;;;;;4997611;28;20046;-72
2022/01/05 12:53:53;;;;;;;15.07;3.05;;;12.00;94.70;;;;;;4997225;28;20034;-73
2022/01/05 12:56:21;;;;;;;15.57;3.13;;;11.70;94.50;;;;;;4998915;28;20048;-71
2022/01/05 12:58:51;;;;;;;13.25;2.95;;;11.30;94.70;;;;;;4984721;28;20651;-71
2022/01/05 13:01:21;;;;;;;15.73;3.33;;;11.10;95.30;;;;;;4984580;28;20061;-72
2022/01/05 13:03:49;;;;;;;12.75;3.08;;;11.10;95.60;;;;;;4985370;28;20391;-70
2022/01/05 13:06:20;;;;;;;17.25;2.78;;;11.00;96.00;;;;;;4983562;28;20050;-71
2022/01/05 13:08:50;;;;;;;11.82;2.80;;;11.10;96.00;;;;;;4983765;28;20049;-70